Terminal Aerodrome Forecast
Issued by NWS

Home | Current Version | Previous Version | Text Only | Print | Product List | Glossary On
Versions: 1 2 3 4 5 6 7 8 9 10 11 12 13 14 15
000
FTUS42 TJSJ 261700
TAFJMZ
TAF
TJMZ 261737Z 2618/2718 07010KT P6SM VCSH SCT025 BKN040
     FM261830 27010KT P6SM VCTS BKN040CB
     FM262200 06006KT P6SM SCT025 SCT040
     FM271530 27010KT P6SM SCT025 BKN040=

USA.gov is the U.S. government's official web portal to all federal, state and local government web resources and services.